Time;durP1;ratioP1;P1;durP2;ratioP2;P2;SDS_P1;SDS_P2;PMS_P1;PMS_P2;Temp;Humidity;BMP_temperature;BMP_pressure;BME280_temperature;BME280_humidity;BME280_pressure;Samples;Min_cycle;Max_cycle;Signal;HPM_P1;HPM_P2
2022/04/24 00:01:30;;;;;;;11.70;5.63;;;;;;;12.98;74.53;99941.28;5072449;28;20045;-73
2022/04/24 00:03:57;;;;;;;16.27;5.20;;;;;;;13.09;74.65;99952.28;5072904;28;20135;-74
2022/04/24 00:06:24;;;;;;;10.50;4.43;;;;;;;12.36;74.51;99842.81;5073275;28;20469;-73
2022/04/24 00:08:51;;;;;;;15.10;3.97;;;;;;;12.99;74.49;99956.13;5059341;28;20500;-73
2022/04/24 00:11:19;;;;;;;10.97;3.63;;;;;;;12.82;74.50;99937.16;5065021;28;20053;-72
2022/04/24 00:13:45;;;;;;;6.97;2.77;;;;;;;12.93;74.66;99946.19;5072085;28;20136;-73
2022/04/24 00:16:12;;;;;;;5.27;2.97;;;;;;;12.91;74.74;99949.28;5069985;28;20056;-72
2022/04/24 00:18:39;;;;;;;10.03;3.13;;;;;;;12.83;74.73;99940.78;5066489;28;20510;-73
2022/04/24 00:21:06;;;;;;;8.23;4.43;;;;;;;12.65;74.67;99922.91;5068296;28;20080;-71
2022/04/24 00:23:34;;;;;;;8.97;3.30;;;;;;;12.68;74.64;99919.47;5070833;28;20059;-70
2022/04/24 00:26:01;;;;;;;8.47;4.20;;;;;;;12.42;74.73;99897.56;5061732;28;20516;-71
2022/04/24 00:28:28;;;;;;;7.77;3.80;;;;;;;12.74;74.78;99940.66;5073311;28;20044;-71
2022/04/24 00:30:55;;;;;;;11.97;4.77;;;;;;;12.71;74.92;99939.28;5071952;28;20557;-70
2022/04/24 00:33:22;;;;;;;10.20;3.87;;;;;;;12.75;75.15;99942.31;5077411;28;20084;-71
2022/04/24 00:35:49;;;;;;;13.57;3.83;;;;;;;12.90;74.94;99944.81;5072808;28;20098;-71
2022/04/24 00:38:16;;;;;;;9.07;4.33;;;;;;;12.69;74.96;99895.94;5070520;28;20048;-71
2022/04/24 00:40:47;;;;;;;10.43;3.63;;;;;;;12.99;75.27;99933.69;5071589;28;20048;-71
2022/04/24 00:43:15;;;;;;;9.87;4.00;;;;;;;12.89;75.22;99925.50;5071273;28;20091;-74
2022/04/24 00:45:41;;;;;;;9.60;4.60;;;;;;;12.82;75.36;99923.13;5071430;28;20512;-72
2022/04/24 00:48:08;;;;;;;19.00;5.90;;;;;;;12.88;75.29;99938.69;5059578;28;20071;-73
2022/04/24 00:50:55;;;;;;;15.30;6.30;;;;;;;12.85;75.24;99953.31;5052885;28;20048;-73
2022/04/24 00:53:22;;;;;;;14.03;6.40;;;;;;;12.71;75.52;99946.88;5059493;28;20079;-73
2022/04/24 00:55:49;;;;;;;12.27;5.10;;;;;;;12.77;75.16;99951.25;5070014;28;20083;-76
2022/04/24 00:58:17;;;;;;;12.40;4.87;;;;;;;12.68;75.01;99950.28;5072087;28;20079;-76
2022/04/24 01:00:44;;;;;;;10.93;4.47;;;;;;;12.65;75.16;99950.91;5069589;28;20537;-76
2022/04/24 01:03:13;;;;;;;11.40;4.77;;;;;;;12.56;75.10;99934.00;5063814;28;20062;-76
2022/04/24 01:05:40;;;;;;;9.97;4.40;;;;;;;12.57;74.96;99946.84;5068546;28;20415;-75
2022/04/24 01:08:07;;;;;;;8.13;4.53;;;;;;;12.19;74.83;99899.38;5068828;28;20076;-78
2022/04/24 01:10:40;;;;;;;6.83;3.13;;;;;;;12.33;74.98;99927.41;5069458;28;20048;-76
2022/04/24 01:13:07;;;;;;;12.43;3.13;;;;;;;12.37;75.35;99939.66;5069431;28;20094;-75
2022/04/24 01:15:34;;;;;;;11.47;3.60;;;;;;;12.43;75.38;99955.22;5069940;28;20056;-77
2022/04/24 01:18:01;;;;;;;11.67;4.57;;;;;;;12.35;75.41;99922.34;5069121;28;20486;-77
2022/04/24 01:20:28;;;;;;;10.03;4.17;;;;;;;12.33;75.46;99931.03;5070714;28;20102;-78
2022/04/24 01:22:55;;;;;;;15.73;4.77;;;;;;;12.42;75.39;99953.59;5067548;28;20060;-75
2022/04/24 01:25:22;;;;;;;9.17;5.10;;;;;;;12.05;75.31;99871.38;5069366;28;20113;-74
2022/04/24 01:27:49;;;;;;;11.90;4.23;;;;;;;12.34;75.24;99929.06;5068896;28;20411;-72
2022/04/24 01:30:16;;;;;;;8.53;3.77;;;;;;;12.18;75.05;99910.91;5070559;28;20119;-75
2022/04/24 01:32:43;;;;;;;9.13;4.10;;;;;;;12.21;75.16;99919.53;5059114;28;20084;-74
2022/04/24 01:35:13;;;;;;;11.83;3.67;;;;;;;12.24;75.39;99923.66;5068849;28;20048;-76
2022/04/24 01:37:43;;;;;;;8.02;4.25;;;;;;;12.30;75.59;99919.63;5071619;28;20098;-75
2022/04/24 01:40:10;;;;;;;8.77;4.30;;;;;;;12.25;75.66;99908.53;5067088;28;20044;-76
2022/04/24 01:42:37;;;;;;;10.70;3.20;;;;;;;12.31;75.57;99935.31;5070184;28;20179;-76
2022/04/24 01:45:05;;;;;;;4.60;2.87;;;;;;;12.16;75.60;99919.59;5070835;28;20076;-75
2022/04/24 01:47:32;;;;;;;4.77;3.17;;;;;;;12.27;75.42;99935.09;5069072;28;20080;-75
2022/04/24 01:49:58;;;;;;;6.67;4.13;;;;;;;12.18;75.58;99917.34;5069948;28;20114;-76
2022/04/24 01:52:25;;;;;;;11.37;5.40;;;;;;;11.93;75.38;99875.78;5070969;28;20106;-76
2022/04/24 01:54:52;;;;;;;7.10;2.87;;;;;;;12.33;75.30;99938.63;5072711;28;20778;-75
2022/04/24 01:57:19;;;;;;;4.73;3.20;;;;;;;12.17;75.48;99910.06;5074218;28;20056;-76
2022/04/24 01:59:46;;;;;;;10.20;3.70;;;;;;;12.26;75.39;99913.00;5090056;28;20041;-75
2022/04/24 02:02:13;;;;;;;5.23;2.87;;;;;;;11.98;75.31;99873.72;5091015;28;20203;-75
2022/04/24 02:04:40;;;;;;;12.57;4.33;;;;;;;12.28;75.40;99927.53;5086288;28;20090;-75
2022/04/24 02:07:07;;;;;;;12.73;5.33;;;;;;;12.18;75.28;99920.13;5080020;28;20060;-74
2022/04/24 02:09:35;;;;;;;7.17;4.10;;;;;;;12.17;75.04;99906.41;5085155;28;20044;-74
2022/04/24 02:12:02;;;;;;;17.57;5.73;;;;;;;12.06;75.36;99878.63;5076296;28;20088;-73
2022/04/24 02:14:29;;;;;;;17.20;5.27;;;;;;;12.21;75.28;99924.28;5072811;28;20079;-74
2022/04/24 02:16:56;;;;;;;10.93;4.20;;;;;;;12.08;75.22;99898.75;5065321;28;20087;-74
2022/04/24 02:19:23;;;;;;;4.50;2.43;;;;;;;12.21;75.16;99924.28;5071376;28;20044;-74
2022/04/24 02:21:50;;;;;;;10.10;4.37;;;;;;;12.27;75.13;99928.63;5073348;28;20060;-77
2022/04/24 02:24:17;;;;;;;5.60;2.60;;;;;;;11.97;74.95;99886.06;5074358;28;20162;-78
2022/04/24 02:26:43;;;;;;;5.27;3.57;;;;;;;12.22;75.13;99926.78;5068202;28;20087;-74
2022/04/24 02:29:10;;;;;;;10.47;4.50;;;;;;;12.22;75.38;99914.75;5072427;28;20415;-74
2022/04/24 02:31:37;;;;;;;7.73;4.60;;;;;;;12.41;75.43;99935.13;5066488;28;20078;-74
2022/04/24 02:34:04;;;;;;;4.90;2.93;;;;;;;11.76;75.30;99829.63;5070854;28;20490;-75
2022/04/24 02:36:31;;;;;;;6.87;4.10;;;;;;;12.35;75.41;99936.34;5070522;28;20070;-76
2022/04/24 02:38:58;;;;;;;9.57;4.23;;;;;;;12.26;75.35;99910.19;5074588;28;20068;-75
2022/04/24 02:41:28;;;;;;;8.73;4.60;;;;;;;12.49;75.44;99934.41;5072134;28;20084;-75
2022/04/24 02:43:54;;;;;;;7.47;3.65;;;;;;;12.23;75.69;99883.63;5073079;28;20478;-74
2022/04/24 02:46:21;;;;;;;11.47;3.60;;;;;;;12.61;75.73;99916.25;5071364;28;20080;-74
2022/04/24 02:48:48;;;;;;;11.03;3.87;;;;;;;12.69;75.82;99924.78;5068382;28;20447;-74
2022/04/24 02:51:15;;;;;;;7.53;2.50;;;;;;;12.62;75.63;99927.16;5072477;28;20111;-72
2022/04/24 02:53:42;;;;;;;9.70;2.67;;;;;;;12.54;75.38;99931.50;5072950;28;20091;-73
2022/04/24 02:56:09;;;;;;;2.70;2.23;;;;;;;12.38;75.11;99935.75;5073730;28;20056;-73
2022/04/24 02:58:38;;;;;;;4.47;2.13;;;;;;;12.31;75.29;99921.31;5073441;28;20072;-73
2022/04/24 03:01:05;;;;;;;2.37;1.50;;;;;;;11.89;75.05;99855.97;5069071;28;20109;-73
2022/04/24 03:03:32;;;;;;;8.97;3.03;;;;;;;11.84;75.21;99878.47;5074007;28;20450;-73
2022/04/24 03:05:59;;;;;;;4.37;2.70;;;;;;;12.24;75.33;99932.03;5072294;28;20048;-74
2022/04/24 03:08:27;;;;;;;2.23;1.37;;;;;;;12.11;75.22;99930.88;5070634;28;20087;-72
2022/04/24 03:10:54;;;;;;;3.57;2.97;;;;;;;12.03;75.37;99909.19;5071133;28;20076;-73
2022/04/24 03:13:20;;;;;;;2.80;1.63;;;;;;;12.11;75.29;99933.69;5070136;28;20041;-73
2022/04/24 03:15:47;;;;;;;9.20;4.33;;;;;;;12.18;75.40;99944.50;5070694;28;20080;-73
2022/04/24 03:18:14;;;;;;;10.80;3.70;;;;;;;12.22;75.25;99931.53;5071043;28;20084;-72
2022/04/24 03:20:41;;;;;;;5.40;2.30;;;;;;;12.14;75.24;99929.47;5072331;28;20072;-74
2022/04/24 03:23:08;;;;;;;5.90;2.40;;;;;;;11.83;75.21;99890.75;5073271;28;20075;-77
2022/04/24 03:25:35;;;;;;;7.83;2.57;;;;;;;11.97;75.44;99914.06;5072101;28;20093;-76
2022/04/24 03:28:02;;;;;;;8.67;2.83;;;;;;;12.04;75.45;99917.28;5067260;28;20052;-74
2022/04/24 03:30:29;;;;;;;5.07;3.50;;;;;;;12.27;75.56;99925.84;5073264;28;20487;-75
2022/04/24 03:32:56;;;;;;;5.33;3.10;;;;;;;12.01;75.34;99891.88;5072521;28;20462;-75
2022/04/24 03:35:23;;;;;;;6.13;2.80;;;;;;;11.58;75.25;99850.88;5071884;28;20106;-75
2022/04/24 03:37:50;;;;;;;5.70;2.77;;;;;;;11.54;75.42;99858.22;5066198;28;20084;-76
2022/04/24 03:40:17;;;;;;;7.90;3.03;;;;;;;11.93;75.44;99921.41;5073580;28;20045;-75
2022/04/24 03:42:43;;;;;;;3.63;1.50;;;;;;;12.14;75.25;99946.25;5071060;28;20049;-74
2022/04/24 03:45:11;;;;;;;6.67;3.70;;;;;;;12.19;75.50;99948.94;5070939;28;20052;-74
2022/04/24 03:47:39;;;;;;;7.30;3.33;;;;;;;11.92;75.37;99904.91;5068846;28;20048;-73
2022/04/24 03:50:06;;;;;;;9.97;4.37;;;;;;;12.30;75.18;99936.44;5069478;28;20063;-74
2022/04/24 03:52:33;;;;;;;2.97;2.37;;;;;;;12.14;75.57;99913.50;5071491;28;20072;-75
2022/04/24 03:55:01;;;;;;;6.30;2.10;;;;;;;12.01;75.51;99901.09;5072729;28;20185;-74
2022/04/24 03:57:28;;;;;;;12.20;2.90;;;;;;;12.09;75.53;99917.19;5062353;28;20090;-74
2022/04/24 03:59:55;;;;;;;3.87;2.20;;;;;;;11.52;75.27;99834.47;5070628;28;20117;-73
2022/04/24 04:02:22;;;;;;;4.40;2.50;;;;;;;11.93;75.44;99904.63;5063120;28;20075;-72
2022/04/24 04:04:49;;;;;;;5.50;1.63;;;;;;;11.66;75.61;99876.47;5068966;28;20059;-72
2022/04/24 04:07:16;;;;;;;2.77;1.87;;;;;;;11.92;75.55;99936.50;5070630;28;20111;-73
2022/04/24 04:09:43;;;;;;;3.67;1.63;;;;;;;11.73;75.55;99928.13;5069774;28;20114;-73
2022/04/24 04:12:10;;;;;;;5.50;3.23;;;;;;;11.63;75.83;99914.28;5072463;28;20076;-73
2022/04/24 04:14:37;;;;;;;4.23;1.97;;;;;;;11.79;75.66;99923.25;5071208;28;20048;-73
2022/04/24 04:17:05;;;;;;;2.50;1.80;;;;;;;11.36;75.65;99861.84;5071332;28;20075;-73
2022/04/24 04:19:32;;;;;;;4.10;2.47;;;;;;;11.77;75.89;99943.16;5069866;28;20114;-72
2022/04/24 04:21:59;;;;;;;3.93;1.87;;;;;;;11.59;75.84;99916.88;5069143;28;20129;-71
2022/04/24 04:24:26;;;;;;;4.97;1.40;;;;;;;11.68;75.89;99932.94;5072135;28;20097;-72
2022/04/24 04:26:53;;;;;;;5.50;3.00;;;;;;;11.57;75.63;99879.97;5070583;28;20125;-72
2022/04/24 04:29:20;;;;;;;2.97;2.00;;;;;;;11.89;75.61;99922.31;5059055;28;20049;-72
2022/04/24 04:31:47;;;;;;;3.07;1.20;;;;;;;11.79;75.76;99926.06;5071249;28;20114;-73
2022/04/24 04:34:14;;;;;;;6.03;2.87;;;;;;;11.91;75.70;99937.66;5069024;28;20056;-72
2022/04/24 04:36:41;;;;;;;2.03;1.60;;;;;;;11.79;75.67;99918.50;5071316;28;20045;-71
2022/04/24 04:39:08;;;;;;;3.93;2.37;;;;;;;11.91;75.51;99929.25;5071348;28;20064;-72
2022/04/24 04:41:35;;;;;;;5.13;3.03;;;;;;;11.99;75.64;99928.56;5069234;28;20052;-74
2022/04/24 04:44:02;;;;;;;7.23;3.23;;;;;;;11.70;75.42;99885.94;5069312;28;20143;-74
2022/04/24 04:46:28;;;;;;;2.80;1.80;;;;;;;11.99;75.54;99934.16;5069992;28;20515;-73
2022/04/24 04:48:55;;;;;;;5.30;2.83;;;;;;;12.02;75.43;99932.72;5065260;28;20048;-74
2022/04/24 04:51:22;;;;;;;6.47;2.73;;;;;;;12.09;75.56;99933.16;5070031;28;20053;-73
2022/04/24 04:53:51;;;;;;;7.23;3.07;;;;;;;12.16;75.72;99938.34;5070907;28;20102;-73
2022/04/24 04:56:18;;;;;;;6.30;2.50;;;;;;;12.07;75.54;99935.44;5061867;28;20097;-73
2022/04/24 04:58:45;;;;;;;7.70;2.83;;;;;;;12.25;75.65;99919.72;5068497;28;20094;-73
2022/04/24 05:01:13;;;;;;;3.60;1.73;;;;;;;12.35;75.52;99936.34;5062200;28;20060;-72
2022/04/24 05:03:41;;;;;;;4.00;2.17;;;;;;;12.03;75.47;99873.66;5064307;28;20082;-74
2022/04/24 05:06:07;;;;;;;6.17;2.20;;;;;;;12.00;75.63;99871.47;5070789;28;20127;-72
2022/04/24 05:08:34;;;;;;;3.80;2.20;;;;;;;12.35;75.42;99927.94;5062131;28;20490;-75
2022/04/24 05:11:06;;;;;;;3.37;2.17;;;;;;;12.23;75.37;99928.41;5070886;28;20426;-86
2022/04/24 05:13:33;;;;;;;10.30;3.00;;;;;;;12.32;75.39;99937.78;5069183;28;20045;-79
2022/04/24 05:16:00;;;;;;;6.20;2.27;;;;;;;11.97;75.06;99886.06;5069762;28;20057;-78
2022/04/24 05:18:27;;;;;;;4.90;1.80;;;;;;;12.41;75.21;99963.13;5070225;28;20056;-78
2022/04/24 05:20:55;;;;;;;2.33;1.70;;;;;;;12.13;75.08;99917.41;5070706;28;20044;-81
2022/04/24 05:23:22;;;;;;;4.37;2.00;;;;;;;12.44;75.16;99965.28;5071317;28;20049;-80
2022/04/24 05:25:49;;;;;;;5.13;1.80;;;;;;;12.21;75.02;99941.09;5068103;28;20048;-80
2022/04/24 05:28:16;;;;;;;3.93;1.83;;;;;;;12.24;74.96;99946.03;5070637;28;20102;-80
2022/04/24 05:30:43;;;;;;;6.57;2.57;;;;;;;12.13;75.22;99922.19;5068999;28;20066;-81
2022/04/24 05:33:16;;;;;;;4.87;2.43;;;;;;;12.28;75.19;99924.72;5072017;28;20049;-80
2022/04/24 05:35:43;;;;;;;4.87;2.20;;;;;;;12.47;75.24;99950.66;5071635;28;20080;-83
2022/04/24 05:38:10;;;;;;;6.13;2.90;;;;;;;12.22;75.33;99909.97;5066798;28;20161;-82
2022/04/24 05:40:37;;;;;;;6.83;2.10;;;;;;;12.32;75.62;99911.75;5065613;28;20071;-78
2022/04/24 05:43:04;;;;;;;7.50;2.57;;;;;;;12.53;75.52;99957.84;5070361;28;20049;-79
2022/04/24 05:45:32;;;;;;;7.63;1.93;;;;;;;12.62;75.49;99962.75;5072292;28;20049;-78
2022/04/24 05:47:59;;;;;;;5.50;2.43;;;;;;;12.26;75.51;99924.19;5073084;28;20181;-83
2022/04/24 05:50:26;;;;;;;6.00;1.80;;;;;;;12.60;75.31;99976.22;5072570;28;20132;-76
2022/04/24 05:52:55;;;;;;;4.83;1.83;;;;;;;12.47;75.01;99961.88;5075297;28;20060;-75
2022/04/24 05:55:23;;;;;;;1.70;1.43;;;;;;;12.45;74.91;99975.38;5075776;28;20056;-75
2022/04/24 05:57:49;;;;;;;2.33;1.37;;;;;;;12.06;74.78;99934.59;5077706;28;20503;-82
2022/04/24 06:00:17;;;;;;;1.63;1.03;;;;;;;12.34;74.98;99962.66;5074157;28;20431;-78
2022/04/24 06:02:50;;;;;;;4.17;1.47;;;;;;;12.36;74.79;99970.78;5076814;28;20560;-77
2022/04/24 06:05:17;;;;;;;3.83;1.70;;;;;;;12.36;74.84;99965.19;5075130;28;20048;-77
2022/04/24 06:07:44;;;;;;;5.03;2.17;;;;;;;12.48;74.95;99971.97;5075738;28;20048;-74
2022/04/24 06:10:12;;;;;;;4.80;2.70;;;;;;;12.31;74.94;99930.53;5075097;28;20091;-74
2022/04/24 06:12:50;;;;;;;4.60;2.27;;;;;;;12.50;74.98;99972.47;5066680;28;20076;-75
2022/04/24 06:15:21;;;;;;;3.90;1.70;;;;;;;12.60;74.97;99981.81;5069420;28;20080;-75
2022/04/24 06:17:52;;;;;;;3.47;1.80;;;;;;;12.47;74.96;99967.47;5068422;28;20419;-76
2022/04/24 06:20:21;;;;;;;1.33;1.03;;;;;;;12.52;75.06;99981.41;5071747;28;20076;-76
2022/04/24 06:23:00;;;;;;;5.13;1.37;;;;;;;12.52;75.11;99977.78;5071589;28;20044;-80
2022/04/24 06:25:33;;;;;;;3.88;2.08;;;;;;;12.55;74.69;99974.38;5076692;28;20527;-79
2022/04/24 06:28:02;;;;;;;4.00;2.20;;;;;;;12.56;74.71;99982.44;5075554;28;20057;-76
2022/04/24 06:30:30;;;;;;;7.67;2.07;;;;;;;12.55;74.59;99979.97;5074199;28;20048;-76
2022/04/24 06:32:58;;;;;;;3.63;2.87;;;;;;;12.69;74.71;99989.22;5072994;28;20566;-74
2022/04/24 06:35:25;;;;;;;4.23;1.87;;;;;;;12.76;74.63;99994.41;5072602;28;20092;-71
2022/04/24 06:37:53;;;;;;;3.03;1.90;;;;;;;12.52;74.67;99953.41;5075828;28;20075;-77
2022/04/24 06:40:25;;;;;;;4.77;2.23;;;;;;;12.45;74.93;99938.97;5074925;28;20083;-74
2022/04/24 06:42:56;;;;;;;5.83;1.77;;;;;;;12.93;74.80;100008.66;5072036;28;20049;-75
2022/04/24 06:45:30;;;;;;;2.80;1.47;;;;;;;12.76;74.69;99986.00;5058496;28;20133;-75
2022/04/24 06:47:59;;;;;;;3.17;1.50;;;;;;;12.85;74.71;100000.13;5068349;28;20140;-74
2022/04/24 06:50:28;;;;;;;4.33;2.10;;;;;;;12.78;74.78;99989.31;5075127;28;20102;-76
2022/04/24 06:53:06;;;;;;;4.80;2.00;;;;;;;12.87;74.58;100015.50;5073072;28;20075;-75
2022/04/24 06:55:35;;;;;;;4.10;1.63;;;;;;;12.95;74.68;99997.13;5072860;28;20057;-76
2022/04/24 06:58:04;;;;;;;3.70;2.00;;;;;;;12.95;74.79;99988.72;5072554;28;20056;-76
2022/04/24 07:00:33;;;;;;;2.93;1.47;;;;;;;13.21;75.05;100022.69;5071028;28;20147;-76
2022/04/24 07:03:21;;;;;;;1.98;1.20;;;;;;;13.14;75.05;99985.84;5072055;28;20052;-75
2022/04/24 07:05:53;;;;;;;5.70;2.03;;;;;;;13.11;75.01;99978.03;5073163;28;20086;-75
2022/04/24 07:08:21;;;;;;;3.67;1.83;;;;;;;13.42;75.04;100035.19;5070127;28;20045;-73
2022/04/24 07:10:48;;;;;;;4.70;2.17;;;;;;;13.43;75.41;100025.63;5067776;28;20048;-74
2022/04/24 07:13:15;;;;;;;2.07;1.37;;;;;;;13.18;75.27;99986.88;5064324;28;20057;-74
2022/04/24 07:15:42;;;;;;;4.70;1.30;;;;;;;13.53;75.45;100024.56;5063509;28;20079;-74
2022/04/24 07:18:10;;;;;;;2.07;1.30;;;;;;;13.50;75.42;100009.22;5074791;28;20461;-75
2022/04/24 07:20:38;;;;;;;4.90;1.83;;;;;;;13.52;75.27;100020.94;5074442;28;20050;-75
2022/04/24 07:23:05;;;;;;;1.67;1.33;;;;;;;13.14;75.29;99969.00;5073856;28;20084;-73
2022/04/24 07:25:34;;;;;;;3.67;1.50;;;;;;;13.54;75.16;100011.38;5067036;28;20488;-74
2022/04/24 07:28:01;;;;;;;2.50;1.00;;;;;;;13.72;75.48;100058.13;5068562;28;20082;-75
2022/04/24 07:30:28;;;;;;;2.40;1.40;;;;;;;13.40;75.41;99992.59;5071264;28;20511;-74
2022/04/24 07:32:56;;;;;;;3.17;1.33;;;;;;;13.44;75.46;99993.63;5072947;28;20084;-75
2022/04/24 07:35:28;;;;;;;3.60;1.57;;;;;;;13.44;75.09;100006.84;5073936;28;20102;-75
2022/04/24 07:37:56;;;;;;;2.70;1.30;;;;;;;13.45;75.01;99997.28;5074050;28;20057;-75
2022/04/24 07:40:28;;;;;;;2.37;1.60;;;;;;;13.73;74.86;100032.53;5071213;28;20083;-75
2022/04/24 07:42:57;;;;;;;3.47;1.83;;;;;;;13.89;74.82;100049.88;5072807;28;20052;-75
2022/04/24 07:45:29;;;;;;;2.30;1.33;;;;;;;13.68;75.06;100026.25;5066354;28;20135;-74
2022/04/24 07:47:58;;;;;;;2.70;1.50;;;;;;;13.59;74.88;100000.06;5072327;28;20052;-75
2022/04/24 07:50:27;;;;;;;1.70;1.27;;;;;;;13.86;75.17;100041.25;5073827;28;20080;-74
2022/04/24 07:52:55;;;;;;;2.70;1.30;;;;;;;13.85;75.16;100046.06;5073008;28;20122;-75
2022/04/24 07:55:24;;;;;;;3.63;1.57;;;;;;;13.93;75.16;100050.91;5073526;28;20074;-75
2022/04/24 07:57:53;;;;;;;1.63;1.30;;;;;;;13.94;75.15;100032.09;5065211;28;20048;-74
2022/04/24 08:00:22;;;;;;;3.38;1.63;;;;;;;13.99;75.29;100037.59;5073896;28;20102;-74
2022/04/24 08:03:01;;;;;;;2.60;1.77;;;;;;;14.07;74.99;100050.03;5073496;28;20048;-74
2022/04/24 08:05:30;;;;;;;5.85;1.70;;;;;;;14.13;75.27;100060.03;5056234;28;20052;-75
2022/04/24 08:07:59;;;;;;;3.43;1.63;;;;;;;14.35;75.81;100047.97;5062451;28;20117;-75
2022/04/24 08:10:29;;;;;;;1.60;1.00;;;;;;;14.59;75.62;100042.06;5069185;28;20081;-75
2022/04/24 08:12:56;;;;;;;2.03;1.30;;;;;;;14.74;75.55;100030.44;5068982;28;20706;-74
2022/04/24 08:15:23;;;;;;;3.43;1.77;;;;;;;15.10;75.48;100058.41;5067944;28;20080;-72
2022/04/24 08:17:50;;;;;;;3.13;1.30;;;;;;;15.19;74.73;100064.09;5071901;28;20106;-77
2022/04/24 08:20:18;;;;;;;1.93;1.23;;;;;;;15.06;74.19;100039.72;5066151;28;20078;-77
2022/04/24 08:22:48;;;;;;;1.97;1.20;;;;;;;15.19;74.49;100063.28;5068758;28;20133;-70
2022/04/24 08:25:20;;;;;;;4.13;2.05;;;;;;;14.95;74.32;100035.53;5071790;28;20075;-69
2022/04/24 08:27:49;;;;;;;1.92;1.05;;;;;;;15.06;74.10;100056.59;5072233;28;20106;-74
2022/04/24 08:30:17;;;;;;;1.33;1.15;;;;;;;15.01;74.25;100054.75;5071753;28;20080;-71
2022/04/24 08:32:45;;;;;;;2.15;1.00;;;;;;;15.03;74.67;100051.59;5068797;28;20076;-77
2022/04/24 08:35:14;;;;;;;1.80;1.20;;;;;;;15.11;74.45;100062.06;5067451;28;20053;-73
2022/04/24 08:37:43;;;;;;;1.30;1.17;;;;;;;15.19;75.06;100066.91;5068270;28;20049;-79
2022/04/24 08:40:12;;;;;;;2.25;1.10;;;;;;;15.23;74.43;100067.91;5062745;28;20103;-71
2022/04/24 08:42:42;;;;;;;2.45;1.30;;;;;;;15.05;74.89;100021.19;5064622;28;20052;-69
2022/04/24 08:45:10;;;;;;;;;;;;;;;15.56;74.95;100059.94;5068358;28;20507;-74
2022/04/24 08:47:37;;;;;;;2.08;1.20;;;;;;;15.67;74.65;100043.63;5069301;28;19952;-76
2022/04/24 08:50:05;;;;;;;3.42;1.48;;;;;;;15.93;74.45;100054.94;5071720;28;20097;-73
2022/04/24 08:52:32;;;;;;;9.32;1.75;;;;;;;16.08;74.00;100060.09;5065687;28;20044;-71
2022/04/24 08:54:59;;;;;;;1.77;1.20;;;;;;;15.77;72.68;99966.47;5060977;28;20117;-73
2022/04/24 08:57:26;;;;;;;2.80;1.00;;;;;;;16.46;72.28;100056.63;5064962;28;20138;-70
2022/04/24 08:59:54;;;;;;;1.23;1.00;;;;;;;16.62;71.77;100061.78;5070008;28;20451;-73
2022/04/24 09:02:41;;;;;;;2.63;1.15;;;;;;;16.98;71.83;100069.84;5066604;28;20052;-73
2022/04/24 09:05:09;;;;;;;3.10;1.33;;;;;;;17.62;71.46;100060.50;5071387;28;20491;-72
2022/04/24 09:07:39;;;;;;;4.60;1.15;;;;;;;18.10;70.31;100028.97;5068152;28;20479;-73
2022/04/24 09:10:22;;;;;;;2.70;0.73;;;;;;;18.52;69.85;100051.56;5068399;28;20579;-73
2022/04/24 09:12:53;;;;;;;4.25;1.75;;;;;;;18.40;69.16;100028.91;5070769;28;20122;-73
2022/04/24 09:15:19;;;;;;;4.95;1.05;;;;;;;18.32;70.07;100067.38;5069305;28;20052;-74
2022/04/24 09:17:46;;;;;;;1.98;0.80;;;;;;;17.86;71.02;100054.25;5067310;28;20052;-71
2022/04/24 09:20:20;;;;;;;2.63;1.00;;;;;;;17.42;70.85;100012.09;5060383;28;20052;-74
2022/04/24 09:22:47;;;;;;;2.72;1.20;;;;;;;17.63;70.71;100054.50;5086526;28;20091;-74
2022/04/24 09:25:14;;;;;;;2.28;0.98;;;;;;;17.92;70.24;100052.88;5069471;28;20104;-73
2022/04/24 09:27:41;;;;;;;2.90;1.02;;;;;;;18.38;70.30;100065.16;5075939;28;20052;-73
2022/04/24 09:30:16;;;;;;;3.65;1.08;;;;;;;18.93;70.13;100058.38;5074674;28;20044;-74
2022/04/24 09:32:51;;;;;;;5.85;1.00;;;;;;;19.08;70.37;100066.22;5071600;28;20072;-75
2022/04/24 09:35:36;;;;;;;3.75;1.15;;;;;;;19.16;70.57;100079.41;5071033;28;20118;-77
2022/04/24 09:38:19;;;;;;;4.78;1.15;;;;;;;18.98;71.14;100077.97;5078534;28;20044;-72
2022/04/24 09:40:48;;;;;;;3.97;1.20;;;;;;;19.02;71.10;100073.25;5065690;28;20143;-73
2022/04/24 09:43:18;;;;;;;7.63;1.55;;;;;;;18.66;70.37;99981.41;5069800;28;20491;-74
2022/04/24 09:45:50;;;;;;;3.85;1.13;;;;;;;19.29;70.19;100037.81;5075687;28;20133;-73
2022/04/24 09:48:25;;;;;;;7.50;1.10;;;;;;;19.91;69.67;100086.84;5060142;28;20480;-72
2022/04/24 09:50:54;;;;;;;1.13;0.90;;;;;;;19.78;69.60;100045.53;5065903;28;20044;-73
2022/04/24 09:53:21;;;;;;;2.17;1.48;;;;;;;20.36;69.72;100086.66;5091285;28;20143;-74
2022/04/24 09:55:51;;;;;;;3.65;1.20;;;;;;;20.55;68.95;100082.41;5075935;28;20491;-73
2022/04/24 09:58:22;;;;;;;3.70;1.33;;;;;;;20.40;68.88;100081.09;5075857;28;20091;-71
2022/04/24 10:00:51;;;;;;;6.95;1.27;;;;;;;20.14;70.05;100090.03;5096506;28;20464;-73
2022/04/24 10:03:20;;;;;;;3.30;1.42;;;;;;;20.13;69.62;100068.50;5081993;28;20066;-72
2022/04/24 10:05:48;;;;;;;3.35;0.88;;;;;;;20.41;69.17;100093.25;5076182;28;20059;-73
2022/04/24 10:08:17;;;;;;;3.22;1.15;;;;;;;20.42;68.46;100090.09;5072762;28;20116;-73
2022/04/24 10:10:50;;;;;;;3.13;0.95;;;;;;;20.06;68.94;100090.97;5074836;28;20048;-74
2022/04/24 10:13:20;;;;;;;1.98;0.90;;;;;;;19.73;69.11;100089.09;5074393;28;20608;-73
2022/04/24 10:16:02;;;;;;;3.03;1.40;;;;;;;19.46;69.52;100107.56;5071519;28;20076;-73
2022/04/24 10:18:40;;;;;;;2.05;0.80;;;;;;;19.52;68.73;100108.16;5068057;28;20060;-73
2022/04/24 10:21:29;;;;;;;2.40;1.00;;;;;;;19.36;68.52;100062.72;5090748;28;20045;-72
2022/04/24 10:24:10;;;;;;;1.77;0.90;;;;;;;19.73;69.28;100122.28;5074752;28;20102;-74
2022/04/24 10:26:37;;;;;;;1.38;0.70;;;;;;;19.50;69.08;100076.53;5075523;28;20107;-73
2022/04/24 10:29:09;;;;;;;3.15;1.23;;;;;;;19.27;68.06;100025.19;5073805;28;20530;-72
2022/04/24 10:31:43;;;;;;;1.90;0.90;;;;;;;19.41;69.04;100077.44;5073194;28;20088;-73
2022/04/24 10:34:13;;;;;;;3.00;0.70;;;;;;;19.64;68.43;100117.53;5075612;28;20106;-73
2022/04/24 10:36:57;;;;;;;1.40;0.77;;;;;;;19.56;69.37;100124.09;5075200;28;20056;-73
2022/04/24 10:39:28;;;;;;;2.55;1.00;;;;;;;19.74;67.55;100096.41;5068762;28;20498;-74
2022/04/24 10:42:12;;;;;;;3.03;1.35;;;;;;;19.91;68.30;100108.69;5073059;28;20047;-73
2022/04/24 10:44:55;;;;;;;1.92;0.95;;;;;;;19.81;68.72;100076.00;5072458;28;20106;-74
2022/04/24 10:47:22;;;;;;;1.65;1.30;;;;;;;20.18;68.99;100129.84;5068114;28;20080;-73
2022/04/24 10:49:49;;;;;;;2.03;1.08;;;;;;;20.50;68.41;100131.69;5055086;28;20056;-73
2022/04/24 10:52:15;;;;;;;0.95;0.60;;;;;;;20.09;68.14;100091.06;5054903;28;20495;-74
2022/04/24 10:54:44;;;;;;;2.00;0.90;;;;;;;20.12;68.72;100115.06;5070391;28;20044;-74
2022/04/24 10:57:20;;;;;;;3.63;1.65;;;;;;;19.93;69.28;100117.66;5074391;28;20109;-73
2022/04/24 10:59:55;;;;;;;4.20;1.63;;;;;;;19.89;69.28;100126.03;5076351;28;20495;-73
2022/04/24 11:02:33;;;;;;;1.58;1.00;;;;;;;20.11;69.78;100136.91;5074617;28;20049;-73
2022/04/24 11:05:01;;;;;;;2.60;0.98;;;;;;;20.68;69.16;100137.06;5073173;28;20503;-73
2022/04/24 11:07:29;;;;;;;2.80;1.08;;;;;;;20.91;69.79;100108.97;5072047;28;20084;-73
2022/04/24 11:10:06;;;;;;;0.88;0.68;;;;;;;21.51;69.01;100132.59;5070648;28;20052;-73
2022/04/24 11:12:33;;;;;;;2.35;1.00;;;;;;;21.48;69.70;100136.19;5072160;28;20045;-74
2022/04/24 11:15:05;;;;;;;3.28;1.10;;;;;;;21.81;68.63;100127.28;5072909;28;20087;-74
2022/04/24 11:17:33;;;;;;;2.22;1.30;;;;;;;22.14;67.30;100117.53;5070413;28;20053;-74
2022/04/24 11:20:06;;;;;;;3.22;1.38;;;;;;;22.43;68.53;100119.91;5066939;28;20149;-73
2022/04/24 11:22:33;;;;;;;2.20;1.70;;;;;;;22.63;68.38;100135.00;5070473;28;20514;-74
2022/04/24 11:25:01;;;;;;;1.77;1.20;;;;;;;22.74;68.21;100109.59;5069041;28;20048;-74
2022/04/24 11:27:28;;;;;;;3.78;2.40;;;;;;;23.57;67.40;100134.88;5071362;28;20499;-74
2022/04/24 11:29:55;;;;;;;2.13;1.30;;;;;;;23.87;67.04;100129.34;5069599;28;20048;-74
2022/04/24 11:32:22;;;;;;;3.53;1.02;;;;;;;24.32;66.88;100139.88;5070036;28;20118;-73
2022/04/24 11:34:49;;;;;;;7.43;2.25;;;;;;;24.29;67.19;100140.63;5073176;28;20040;-74
2022/04/24 11:37:15;;;;;;;2.22;1.17;;;;;;;24.02;67.43;100145.47;5073321;28;20495;-73